Time;durP1;ratioP1;P1;durP2;ratioP2;P2;SDS_P1;SDS_P2;PMS_P1;PMS_P2;Temp;Humidity;BMP_temperature;BMP_pressure;BME280_temperature;BME280_humidity;BME280_pressure;Samples;Min_cycle;Max_cycle;Signal;HPM_P1;HPM_P2
2022/09/01 00:00:50;;;;;;;;;;;14.10;99.90;;;;;;4961009;28;19985;-92
2022/09/01 00:03:25;;;;;;;;;;;13.90;99.90;;;;;;4977432;28;20277;-92
2022/09/01 00:05:56;;;;;;;;;;;13.90;99.90;;;;;;4961551;28;19994;-92
2022/09/01 00:08:22;;;;;;;;;;;13.30;99.90;;;;;;4975056;28;19922;-90
2022/09/01 00:10:47;;;;;;;;;;;14.20;99.90;;;;;;4959002;28;19944;-89
2022/09/01 00:13:13;;;;;;;;;;;14.00;99.90;;;;;;4958004;28;20001;-88
2022/09/01 00:15:38;;;;;;;;;;;14.10;99.90;;;;;;4975372;28;19945;-87
2022/09/01 00:18:04;;;;;;;;;;;14.00;99.90;;;;;;4975221;28;20282;-88
2022/09/01 00:20:30;;;;;;;;;;;14.00;99.90;;;;;;4976402;28;19973;-89
2022/09/01 00:22:55;;;;;;;;;;;14.30;99.90;;;;;;4976711;28;19926;-90
2022/09/01 00:25:22;;;;;;;;;;;14.00;99.90;;;;;;4974410;28;20024;-89
2022/09/01 00:27:48;;;;;;;;;;;13.90;99.90;;;;;;4974484;28;20016;-89
2022/09/01 00:30:14;;;;;;;;;;;13.70;99.90;;;;;;4974247;28;19922;-89
2022/09/01 00:32:39;;;;;;;;;;;13.70;99.90;;;;;;4974080;28;20053;-89
2022/09/01 00:35:05;;;;;;;;;;;13.70;99.90;;;;;;4975428;28;19984;-89
2022/09/01 00:37:31;;;;;;;;;;;13.70;99.90;;;;;;4974548;28;20013;-88
2022/09/01 00:39:56;;;;;;;;;;;13.80;99.90;;;;;;4975379;28;19929;-88
2022/09/01 00:42:22;;;;;;;;;;;13.70;99.90;;;;;;4974754;28;19926;-90
2022/09/01 00:44:47;;;;;;;;;;;13.70;99.90;;;;;;4958294;28;19929;-88
2022/09/01 00:47:13;;;;;;;;;;;13.60;99.90;;;;;;4973874;28;19922;-89
2022/09/01 00:49:43;;;;;;;;;;;13.60;99.90;;;;;;4958269;28;19926;-89
2022/09/01 00:52:42;;;;;;;;;;;13.60;99.90;;;;;;4973530;28;19972;-89
2022/09/01 00:55:12;;;;;;;;;;;13.60;99.90;;;;;;4941395;28;19930;-89
2022/09/01 00:57:38;;;;;;;;;;;13.60;99.90;;;;;;4973751;28;19922;-89
2022/09/01 01:00:06;;;;;;;;;;;13.60;99.90;;;;;;4957567;28;19929;-90
2022/09/01 01:02:32;;;;;;;;;;;14.00;99.90;;;;;;4973702;28;20020;-90
2022/09/01 01:04:59;;;;;;;;;;;13.50;99.90;;;;;;4973959;28;19972;-89
2022/09/01 01:07:26;;;;;;;;;;;13.50;99.90;;;;;;4974419;28;20453;-89
2022/09/01 01:09:51;;;;;;;;;;;13.50;99.90;;;;;;4942112;28;19937;-88
2022/09/01 01:12:17;;;;;;;;;;;13.40;99.90;;;;;;4987848;28;20290;-90
2022/09/01 01:14:44;;;;;;;;;;;13.30;99.90;;;;;;4975839;28;19927;-90
2022/09/01 01:17:10;;;;;;;;;;;13.20;99.90;;;;;;4961778;28;20281;-88
2022/09/01 01:25:14;;;;;;;;;;;13.10;99.90;;;;;;4973408;28;19923;-89
2022/09/01 01:27:41;;;;;;;;;;;13.10;99.90;;;;;;4983695;28;19922;-89
2022/09/01 01:30:09;;;;;;;;;;;13.10;99.90;;;;;;4977460;28;19928;-89
2022/09/01 01:32:42;;;;;;;;;;;13.70;99.90;;;;;;4977012;28;19925;-88
2022/09/01 01:35:11;;;;;;;;;;;13.10;99.90;;;;;;4977973;28;19926;-90
2022/09/01 01:37:37;;;;;;;;;;;13.10;99.90;;;;;;4977845;28;19973;-89
2022/09/01 01:40:03;;;;;;;;;;;13.10;99.90;;;;;;4994705;28;19941;-88
2022/09/01 01:42:31;;;;;;;;;;;13.10;99.90;;;;;;4994283;28;19930;-88
2022/09/01 01:44:57;;;;;;;;;;;13.00;99.90;;;;;;4961918;28;19921;-89
2022/09/01 01:47:24;;;;;;;;;;;13.00;99.90;;;;;;4976755;28;19926;-89
2022/09/01 01:49:50;;;;;;;;;;;13.00;99.90;;;;;;4960744;28;19926;-89
2022/09/01 01:52:16;;;;;;;;;;;13.00;99.90;;;;;;4994161;28;20009;-88
2022/09/01 01:54:42;;;;;;;;;;;13.00;99.90;;;;;;4994580;28;19969;-89
2022/09/01 01:57:08;;;;;;;;;;;13.00;99.90;;;;;;4976778;28;19922;-88
2022/09/01 01:59:33;;;;;;;;;;;12.90;99.90;;;;;;4960147;28;19948;-89
2022/09/01 02:02:02;;;;;;;;;;;12.80;99.90;;;;;;4963514;28;20005;-88
2022/09/01 02:04:32;;;;;;;;;;;12.80;99.90;;;;;;4994127;28;20373;-87
2022/09/01 02:06:58;;;;;;;;;;;12.80;99.90;;;;;;4995188;28;19969;-88
2022/09/01 02:09:24;;;;;;;;;;;12.90;99.90;;;;;;4949491;28;19992;-88
2022/09/01 02:11:55;;;;;;;;;;;12.90;99.90;;;;;;4953125;28;19926;-88
2022/09/01 02:14:21;;;;;;;;;;;12.90;99.90;;;;;;5004262;28;19925;-89
2022/09/01 02:16:46;;;;;;;;;;;12.90;99.90;;;;;;5004901;28;19928;-88
2022/09/01 02:19:12;;;;;;;;;;;13.00;99.90;;;;;;5006039;28;19922;-89
2022/09/01 02:21:43;;;;;;;;;;;12.70;99.90;;;;;;4989753;28;19922;-89
2022/09/01 02:24:09;;;;;;;;;;;12.80;99.90;;;;;;4992485;28;19933;-89
2022/09/01 02:26:37;;;;;;;;;;;12.80;99.90;;;;;;4996923;28;19952;-90
2022/09/01 02:29:03;;;;;;;;;;;12.80;99.90;;;;;;4997264;28;19921;-89
2022/09/01 02:31:30;;;;;;;;;;;12.80;99.90;;;;;;4979784;28;19914;-89
2022/09/01 02:33:56;;;;;;;;;;;12.80;99.90;;;;;;5012524;28;19926;-89
2022/09/01 02:36:23;;;;;;;;;;;12.80;99.90;;;;;;5010986;28;20373;-89
2022/09/01 02:38:49;;;;;;;;;;;12.90;99.90;;;;;;4990272;28;19922;-88
2022/09/01 02:41:18;;;;;;;;;;;12.70;99.90;;;;;;4986790;28;19933;-90
2022/09/01 02:43:45;;;;;;;;;;;12.70;99.90;;;;;;4986436;28;19922;-88
2022/09/01 02:46:10;;;;;;;;;;;12.70;99.90;;;;;;4971944;28;19989;-88
2022/09/01 02:48:36;;;;;;;;;;;12.60;99.90;;;;;;4971204;28;19995;-90
2022/09/01 02:51:06;;;;;;;;;;;12.60;99.90;;;;;;4988454;28;19922;-89
2022/09/01 02:53:33;;;;;;;;;;;12.50;99.90;;;;;;4987988;28;19977;-89
2022/09/01 02:55:59;;;;;;;;;;;12.50;99.90;;;;;;4975514;28;19926;-89
2022/09/01 02:58:25;;;;;;;;;;;12.50;99.90;;;;;;4992114;28;19977;-89
2022/09/01 03:00:52;;;;;;;;;;;12.50;99.90;;;;;;4990301;28;19930;-89
2022/09/01 03:03:18;;;;;;;;;;;12.40;99.90;;;;;;4974388;28;20132;-90
2022/09/01 03:05:44;;;;;;;;;;;12.50;99.90;;;;;;4987416;28;20282;-89
2022/09/01 03:08:13;;;;;;;;;;;12.60;99.90;;;;;;4965328;28;19976;-89
2022/09/01 03:10:40;;;;;;;;;;;12.50;99.90;;;;;;4976509;28;19930;-89
2022/09/01 03:13:07;;;;;;;;;;;12.40;99.90;;;;;;4959724;28;19948;-88
2022/09/01 03:15:32;;;;;;;;;;;12.40;99.90;;;;;;4974970;28;19925;-89
2022/09/01 03:17:59;;;;;;;;;;;12.40;99.90;;;;;;4992767;28;20351;-89
2022/09/01 03:20:26;;;;;;;;;;;12.40;99.90;;;;;;4983894;28;19910;-91
2022/09/01 03:22:52;;;;;;;;;;;12.30;99.90;;;;;;4997429;28;20022;-88
2022/09/01 03:25:17;;;;;;;;;;;12.30;99.90;;;;;;4977266;28;19938;-88
2022/09/01 03:27:43;;;;;;;;;;;12.40;99.90;;;;;;4975438;28;19922;-89
2022/09/01 03:30:09;;;;;;;;;;;12.30;99.90;;;;;;4994354;28;19926;-88
2022/09/01 03:32:35;;;;;;;;;;;12.30;99.90;;;;;;4975808;28;19922;-88
2022/09/01 03:35:00;;;;;;;;;;;12.30;99.90;;;;;;4958967;28;19922;-90
2022/09/01 03:37:26;;;;;;;;;;;12.40;99.90;;;;;;4991965;28;19922;-89
2022/09/01 03:39:51;;;;;;;;;;;12.30;99.90;;;;;;4992099;28;19926;-89
2022/09/01 03:42:26;;;;;;;;;;;12.30;99.90;;;;;;4959025;28;20337;-90
2022/09/01 03:44:52;;;;;;;;;;;12.20;99.90;;;;;;4974631;28;20377;-89
2022/09/01 03:47:19;;;;;;;;;;;12.10;99.90;;;;;;4993524;28;19941;-89
2022/09/01 03:49:48;;;;;;;;;;;12.10;99.90;;;;;;4962644;28;19925;-88
2022/09/01 03:52:13;;;;;;;;;;;12.00;99.90;;;;;;4978694;28;19926;-88
2022/09/01 03:54:39;;;;;;;;;;;12.00;99.90;;;;;;4977898;28;19932;-89
2022/09/01 03:57:08;;;;;;;;;;;12.00;99.90;;;;;;4978755;28;19922;-88
2022/09/01 03:59:34;;;;;;;;;;;11.90;99.90;;;;;;4978191;28;19929;-89
2022/09/01 04:02:01;;;;;;;;;;;11.80;99.90;;;;;;4978376;28;20266;-89
2022/09/01 04:04:30;;;;;;;;;;;11.90;99.90;;;;;;4977868;28;20270;-89
2022/09/01 04:06:55;;;;;;;;;;;11.80;99.90;;;;;;4977998;28;20453;-88
2022/09/01 04:09:21;;;;;;;;;;;11.80;99.90;;;;;;4978183;28;20017;-88
2022/09/01 04:11:47;;;;;;;;;;;11.80;99.90;;;;;;4945755;28;19922;-89
2022/09/01 04:14:13;;;;;;;;;;;11.70;99.90;;;;;;4995400;28;20269;-88
2022/09/01 04:19:24;;;;;;;;;;;11.70;99.90;;;;;;4964259;28;19922;-89
2022/09/01 04:21:52;;;;;;;;;;;11.70;99.90;;;;;;4977597;28;19922;-89
2022/09/01 04:24:18;;;;;;;;;;;11.70;99.90;;;;;;4946563;28;19929;-89
2022/09/01 04:26:46;;;;;;;;;;;11.60;99.90;;;;;;4977324;28;19926;-89
2022/09/01 04:29:12;;;;;;;;;;;11.70;99.90;;;;;;4962319;28;19988;-89
2022/09/01 04:31:39;;;;;;;;;;;11.60;99.90;;;;;;4978424;28;20374;-88
2022/09/01 04:34:12;;;;;;;;;;;11.60;99.90;;;;;;4978130;28;19926;-89
2022/09/01 04:36:39;;;;;;;;;;;11.60;99.90;;;;;;4977741;28;20370;-88
2022/09/01 04:39:09;;;;;;;;;;;11.70;99.90;;;;;;4978098;28;20273;-88
2022/09/01 04:41:36;;;;;;;;;;;11.60;99.90;;;;;;4978145;28;20046;-87
2022/09/01 04:44:03;;;;;;;;;;;11.60;99.90;;;;;;4977767;28;19929;-88
2022/09/01 04:46:30;;;;;;;;;;;11.60;99.90;;;;;;4946993;28;19975;-91
2022/09/01 04:48:56;;;;;;;;;;;11.70;99.90;;;;;;4977356;28;20354;-89
2022/09/01 04:51:23;;;;;;;;;;;11.60;99.90;;;;;;4961503;28;19922;-87
2022/09/01 04:53:49;;;;;;;;;;;11.60;99.90;;;;;;4994582;28;19926;-88
2022/09/01 04:56:18;;;;;;;;;;;11.60;99.90;;;;;;4994657;28;20356;-89
2022/09/01 04:58:45;;;;;;;;;;;11.60;99.90;;;;;;4993707;28;20356;-88
2022/09/01 05:01:18;;;;;;;;;;;11.70;99.90;;;;;;4960434;28;19926;-89
2022/09/01 05:03:44;;;;;;;;;;;11.70;99.90;;;;;;4960300;28;20017;-88
2022/09/01 05:06:16;;;;;;;;;;;11.70;99.90;;;;;;4960616;28;19929;-88
2022/09/01 05:08:44;;;;;;;;;;;11.60;99.90;;;;;;4945380;28;19922;-88
2022/09/01 05:11:10;;;;;;;;;;;11.70;99.90;;;;;;4977411;28;19922;-89
2022/09/01 05:13:38;;;;;;;;;;;11.80;99.90;;;;;;4961535;28;20550;-88
2022/09/01 05:16:05;;;;;;;;;;;11.90;99.90;;;;;;4945789;28;19976;-88
2022/09/01 05:18:31;;;;;;;;;;;11.90;99.90;;;;;;4994789;28;19926;-88
2022/09/01 05:20:56;;;;;;;;;;;11.90;99.90;;;;;;4993727;28;19922;-88
2022/09/01 05:23:22;;;;;;;;;;;12.10;99.90;;;;;;4977156;28;19921;-89
2022/09/01 05:25:48;;;;;;;;;;;12.10;99.90;;;;;;4960699;28;19922;-88
2022/09/01 05:28:17;;;;;;;;;;;12.20;99.90;;;;;;5002475;28;19926;-90
2022/09/01 05:30:44;;;;;;;;;;;12.30;99.90;;;;;;4998062;28;19922;-88
2022/09/01 05:33:15;;;;;;;;;;;12.30;99.90;;;;;;4978240;28;19921;-89
2022/09/01 05:36:03;;;;;;;;;;;12.40;99.90;;;;;;4978711;28;20365;-88
2022/09/01 05:38:30;;;;;;;;;;;12.60;99.90;;;;;;4994325;28;19926;-88
2022/09/01 05:40:56;;;;;;;;;;;13.10;99.90;;;;;;4993369;28;20259;-89
2022/09/01 05:43:22;;;;;;;;;;;14.00;99.90;;;;;;4960394;28;19925;-89
2022/09/01 05:45:48;;;;;;;;;;;14.80;99.90;;;;;;4959889;28;20320;-89
2022/09/01 05:48:20;;;;;;;;;;;15.60;99.90;;;;;;4959603;28;19922;-89
2022/09/01 05:50:46;;;;;;;;;;;16.40;99.90;;;;;;4996331;28;19928;-88
2022/09/01 05:53:16;;;;;;;;;;;16.80;99.90;;;;;;4944069;28;19926;-90
2022/09/01 05:55:42;;;;;;;;;;;17.10;99.90;;;;;;4975984;28;19929;-89
2022/09/01 05:58:12;;;;;;;;;;;17.80;99.90;;;;;;4975983;28;19929;-89
2022/09/01 06:00:39;;;;;;;;;;;17.60;99.90;;;;;;4975906;28;19941;-90
2022/09/01 06:03:08;;;;;;;;;;;18.50;99.90;;;;;;4960388;28;20063;-89
2022/09/01 06:05:35;;;;;;;;;;;18.50;99.90;;;;;;4960676;28;20340;-89
2022/09/01 06:08:01;;;;;;;;;;;19.30;99.90;;;;;;4959597;28;20353;-88
2022/09/01 06:10:28;;;;;;;;;;;19.40;99.90;;;;;;4992738;28;19945;-91
2022/09/01 06:12:54;;;;;;;;;;;19.80;99.90;;;;;;4975775;28;19932;-89
2022/09/01 06:15:19;;;;;;;;;;;19.70;99.90;;;;;;4993123;28;19969;-90
2022/09/01 06:17:45;;;;;;;;;;;19.70;99.90;;;;;;4975646;28;19921;-89
2022/09/01 06:20:11;;;;;;;;;;;19.10;99.90;;;;;;4959519;28;19929;-90
2022/09/01 06:22:38;;;;;;;;;;;19.20;99.90;;;;;;4975952;28;20277;-90
2022/09/01 06:25:05;;;;;;;;;;;19.60;99.90;;;;;;4995508;28;19972;-90
2022/09/01 06:27:31;;;;;;;;;;;19.90;99.90;;;;;;4975575;28;19922;-90
2022/09/01 06:29:57;;;;;;;;;;;20.20;99.90;;;;;;4976247;28;20251;-89
2022/09/01 06:32:24;;;;;;;;;;;19.90;99.90;;;;;;4979469;28;20021;-90
2022/09/01 06:34:50;;;;;;;;;;;20.30;99.90;;;;;;4996606;28;19921;-90
2022/09/01 06:37:16;;;;;;;;;;;20.70;99.90;;;;;;4982426;28;19922;-89
2022/09/01 06:39:42;;;;;;;;;;;21.10;99.90;;;;;;4992778;28;19921;-90
2022/09/01 06:42:10;;;;;;;;;;;22.50;99.90;;;;;;4992695;28;19929;-88
2022/09/01 06:44:35;;;;;;;;;;;21.30;99.90;;;;;;4959377;28;19997;-89
2022/09/01 06:47:01;;;;;;;;;;;21.50;99.90;;;;;;4959240;28;20020;-89
2022/09/01 06:49:31;;;;;;;;;;;22.10;99.90;;;;;;4992723;28;19922;-90
2022/09/01 06:51:58;;;;;;;;;;;22.50;99.90;;;;;;4974932;28;19922;-89
2022/09/01 06:54:24;;;;;;;;;;;22.30;99.90;;;;;;5001790;28;19922;-87
2022/09/01 06:56:50;;;;;;;;;;;22.30;99.90;;;;;;4978715;28;20456;-88
2022/09/01 06:59:15;;;;;;;;;;;22.20;99.90;;;;;;4961240;28;19957;-89
2022/09/01 07:01:41;;;;;;;;;;;22.50;99.90;;;;;;4975988;28;20482;-92
2022/09/01 07:04:07;;;;;;;;;;;22.20;99.90;;;;;;4975617;28;19921;-93
2022/09/01 07:06:34;;;;;;;;;;;22.50;99.90;;;;;;4959841;28;19928;-93
2022/09/01 07:09:00;;;;;;;;;;;23.00;99.90;;;;;;4975669;28;19936;-91
2022/09/01 07:11:32;;;;;;;;;;;22.70;99.90;;;;;;4944597;28;19926;-93
2022/09/01 07:14:00;;;;;;;;;;;22.80;99.90;;;;;;4944097;28;20281;-91
2022/09/01 07:16:26;;;;;;;;;;;22.70;99.90;;;;;;4944286;28;19926;-93
2022/09/01 07:18:57;;;;;;;;;;;22.40;99.90;;;;;;4944214;28;19944;-93
2022/09/01 07:21:27;;;;;;;;;;;22.20;99.90;;;;;;4943817;28;19922;-90
2022/09/01 07:23:54;;;;;;;;;;;23.10;99.90;;;;;;4979040;28;19921;-94
2022/09/01 07:26:21;;;;;;;;;;;23.90;99.30;;;;;;4956187;28;19925;-94
2022/09/01 07:28:49;;;;;;;;;;;24.20;98.70;;;;;;4981526;28;20354;-93
2022/09/01 07:31:19;;;;;;;;;;;23.50;99.70;;;;;;4964318;28;19921;-94
2022/09/01 07:33:51;;;;;;;;;;;23.70;99.50;;;;;;4964700;28;19922;-93
2022/09/01 07:36:20;;;;;;;;;;;24.00;99.10;;;;;;5012335;28;19961;-91
2022/09/01 07:38:50;;;;;;;;;;;23.20;99.70;;;;;;4976912;28;20265;-91
2022/09/01 07:41:16;;;;;;;;;;;22.70;99.90;;;;;;4950878;28;19980;-90
2022/09/01 07:43:43;;;;;;;;;;;23.70;99.90;;;;;;4967139;28;19926;-89
2022/09/01 07:46:09;;;;;;;;;;;24.20;99.40;;;;;;4982388;28;19976;-88
2022/09/01 07:48:35;;;;;;;;;;;23.80;99.30;;;;;;4966441;28;19922;-90
2022/09/01 07:51:00;;;;;;;;;;;25.30;99.60;;;;;;4965835;28;19921;-91
2022/09/01 07:53:34;;;;;;;;;;;23.90;99.70;;;;;;4999297;28;19932;-89
2022/09/01 07:56:05;;;;;;;;;;;23.80;99.30;;;;;;4963823;28;20332;-89
2022/09/01 07:58:34;;;;;;;;;;;23.90;99.40;;;;;;4979255;28;19921;-89
2022/09/01 08:01:02;;;;;;;;;;;24.60;99.50;;;;;;4979530;28;19929;-88
2022/09/01 08:03:29;;;;;;;;;;;24.60;98.80;;;;;;4963530;28;20020;-89
2022/09/01 08:05:59;;;;;;;;;;;25.20;97.90;;;;;;4978374;28;20365;-87
2022/09/01 08:08:25;;;;;;;;;;;25.10;98.40;;;;;;4978730;28;20021;-87
2022/09/01 08:10:53;;;;;;;;;;;24.60;98.70;;;;;;4962540;28;20012;-88
2022/09/01 08:13:22;;;;;;;;;;;24.80;98.80;;;;;;4977938;28;19925;-89
2022/09/01 08:15:48;;;;;;;;;;;25.30;98.00;;;;;;4978824;28;19980;-89
2022/09/01 08:18:14;;;;;;;;;;;24.90;98.40;;;;;;4977948;28;20320;-87
2022/09/01 08:20:44;;;;;;;;;;;25.30;97.70;;;;;;4977208;28;19977;-87
2022/09/01 08:23:10;;;;;;;;;;;25.20;97.50;;;;;;4977305;28;19921;-88
2022/09/01 08:25:36;;;;;;;;;;;25.30;97.60;;;;;;4977762;28;19922;-89
2022/09/01 08:28:01;;;;;;;;;;;25.90;97.30;;;;;;4963146;28;20324;-90
2022/09/01 08:30:27;;;;;;;;;;;26.10;97.00;;;;;;4977858;28;20020;-90
2022/09/01 08:32:53;;;;;;;;;;;26.00;96.80;;;;;;4995313;28;19992;-90
2022/09/01 08:35:19;;;;;;;;;;;25.80;96.60;;;;;;4961403;28;19946;-89
2022/09/01 08:37:44;;;;;;;;;;;25.80;96.90;;;;;;4977871;28;19921;-89
2022/09/01 08:40:17;;;;;;;;;;;25.70;96.90;;;;;;4994226;28;19932;-88
2022/09/01 08:42:46;;;;;;;;;;;26.10;96.80;;;;;;4977275;28;20366;-88
2022/09/01 08:45:11;;;;;;;;;;;26.10;97.00;;;;;;4960633;28;19922;-89
2022/09/01 08:47:39;;;;;;;;;;;26.40;96.90;;;;;;4976806;28;19921;-89
2022/09/01 08:50:07;;;;;;;;;;;26.40;96.60;;;;;;4961289;28;20270;-89
2022/09/01 08:52:37;;;;;;;;;;;25.50;96.50;;;;;;4961657;28;19922;-88
2022/09/01 08:55:26;;;;;;;;;;;26.10;96.50;;;;;;4944704;28;20243;-89
2022/09/01 08:57:54;;;;;;;;;;;26.10;96.00;;;;;;4962598;28;19968;-90
2022/09/01 09:00:22;;;;;;;;;;;26.50;96.80;;;;;;4960810;28;19969;-89
2022/09/01 09:03:00;;;;;;;;;;;26.70;96.20;;;;;;4961506;28;20361;-92
2022/09/01 09:05:41;;;;;;;;;;;25.80;95.80;;;;;;4977367;28;19922;-90
2022/09/01 09:08:19;;;;;;;;;;;26.10;95.70;;;;;;4961928;28;19972;-89
2022/09/01 09:11:05;;;;;;;;;;;26.00;95.70;;;;;;4960546;28;20354;-88
2022/09/01 09:13:39;;;;;;;;;;;26.20;95.90;;;;;;4975936;28;20246;-89
2022/09/01 09:16:11;;;;;;;;;;;26.10;96.00;;;;;;4960341;28;20080;-89
2022/09/01 09:18:45;;;;;;;;;;;27.00;95.40;;;;;;4977794;28;20396;-93
2022/09/01 09:21:12;;;;;;;;;;;26.90;95.10;;;;;;4946131;28;19929;-93
2022/09/01 09:23:39;;;;;;;;;;;26.70;95.10;;;;;;4962754;28;20390;-91
2022/09/01 09:26:12;;;;;;;;;;;27.00;94.90;;;;;;4963557;28;20507;-94
2022/09/01 09:28:39;;;;;;;;;;;27.70;94.50;;;;;;4984754;28;20371;-90
2022/09/01 09:31:23;;;;;;;;;;;27.50;94.20;;;;;;4977728;28;20076;-94
2022/09/01 09:33:49;;;;;;;;;;;27.20;94.30;;;;;;4977225;28;19925;-91
2022/09/01 09:36:15;;;;;;;;;;;26.20;94.10;;;;;;4944502;28;20012;-90
2022/09/01 09:38:42;;;;;;;;;;;26.20;94.60;;;;;;4978060;28;19933;-89
2022/09/01 09:41:16;;;;;;;;;;;28.10;94.90;;;;;;4960852;28;19947;-87
2022/09/01 09:43:42;;;;;;;;;;;26.40;94.60;;;;;;4965737;28;19926;-91
2022/09/01 09:46:27;;;;;;;;;;;26.80;94.80;;;;;;4982790;28;19910;-88
2022/09/01 09:49:05;;;;;;;;;;;26.80;93.40;;;;;;4979729;28;19939;-88
2022/09/01 09:51:30;;;;;;;;;;;27.10;93.60;;;;;;4962223;28;20020;-86
2022/09/01 09:54:09;;;;;;;;;;;27.10;93.30;;;;;;4978676;28;20397;-86
2022/09/01 09:56:35;;;;;;;;;;;26.90;93.40;;;;;;4945191;28;20307;-86
2022/09/01 09:59:00;;;;;;;;;;;27.30;93.00;;;;;;4960697;28;19968;-86
2022/09/01 10:01:27;;;;;;;;;;;27.10;92.30;;;;;;4959698;28;20400;-83
2022/09/01 10:03:57;;;;;;;;;;;27.30;92.40;;;;;;4976322;28;19922;-88
2022/09/01 10:06:33;;;;;;;;;;;27.60;92.50;;;;;;4961199;28;19922;-86
2022/09/01 10:09:08;;;;;;;;;;;26.80;92.50;;;;;;4976422;28;20370;-87
2022/09/01 10:11:44;;;;;;;;;;;27.10;92.70;;;;;;4944460;28;20017;-88
2022/09/01 10:14:15;;;;;;;;;;;27.40;92.40;;;;;;4960460;28;19922;-90
2022/09/01 10:16:41;;;;;;;;;;;27.90;92.00;;;;;;4960870;28;19922;-85
2022/09/01 10:19:10;;;;;;;;;;;27.20;92.00;;;;;;4976208;28;20040;-86
2022/09/01 10:21:36;;;;;;;;;;;27.00;91.80;;;;;;4959659;28;20000;-86
2022/09/01 10:24:15;;;;;;;;;;;26.30;91.20;;;;;;4975398;28;20360;-86
2022/09/01 10:26:40;;;;;;;;;;;26.50;90.70;;;;;;4959665;28;19922;-86
2022/09/01 10:29:17;;;;;;;;;;;26.40;91.20;;;;;;4960217;28;19921;-86
2022/09/01 10:31:43;;;;;;;;;;;25.90;91.90;;;;;;4960331;28;19933;-87
2022/09/01 10:34:12;;;;;;;;;;;26.50;92.00;;;;;;4976018;28;19930;-91
2022/09/01 10:36:38;;;;;;;;;;;26.70;91.30;;;;;;4960525;28;19926;-92
2022/09/01 10:39:03;;;;;;;;;;;26.30;91.90;;;;;;4948195;28;19926;-90
2022/09/01 10:41:49;;;;;;;;;;;26.50;92.00;;;;;;4968758;28;19961;-92
2022/09/01 10:44:25;;;;;;;;;;;26.90;90.90;;;;;;4967682;28;20010;-92
2022/09/01 10:46:55;;;;;;;;;;;25.90;91.20;;;;;;4995620;28;19953;-88
2022/09/01 10:49:26;;;;;;;;;;;26.10;91.50;;;;;;4975424;28;20042;-89
2022/09/01 10:51:53;;;;;;;;;;;26.50;91.00;;;;;;4959973;28;19989;-88
2022/09/01 10:54:37;;;;;;;;;;;25.90;90.80;;;;;;4961058;28;19973;-88
2022/09/01 10:57:04;;;;;;;;;;;25.80;90.80;;;;;;4977839;28;20280;-87
2022/09/01 10:59:30;;;;;;;;;;;26.10;90.70;;;;;;4962937;28;20285;-87
2022/09/01 11:02:03;;;;;;;;;;;26.00;90.70;;;;;;4996509;28;19925;-88
2022/09/01 11:04:28;;;;;;;;;;;26.30;91.10;;;;;;4996320;28;19930;-90
2022/09/01 11:06:54;;;;;;;;;;;26.60;91.20;;;;;;4963002;28;19930;-88
2022/09/01 11:09:21;;;;;;;;;;;26.70;90.80;;;;;;4978833;28;19969;-89
2022/09/01 11:11:52;;;;;;;;;;;26.30;91.30;;;;;;4960267;28;20344;-88
2022/09/01 11:14:18;;;;;;;;;;;25.90;91.20;;;;;;5011351;28;19926;-85
2022/09/01 11:17:04;;;;;;;;;;;25.60;91.40;;;;;;4943170;28;19930;-87
2022/09/01 11:19:42;;;;;;;;;;;25.20;91.80;;;;;;4993496;28;19937;-86
2022/09/01 11:22:20;;;;;;;;;;;25.50;91.80;;;;;;4946780;28;19926;-88
2022/09/01 11:24:51;;;;;;;;;;;24.70;91.00;;;;;;4947013;28;19973;-87
2022/09/01 11:27:35;;;;;;;;;;;24.70;91.30;;;;;;4946934;28;20271;-90
2022/09/01 11:30:07;;;;;;;;;;;24.80;91.30;;;;;;4963053;28;20071;-90
2022/09/01 11:32:37;;;;;;;;;;;24.80;91.20;;;;;;4974152;28;20305;-92
2022/09/01 11:35:04;;;;;;;;;;;24.70;91.10;;;;;;4979417;28;20013;-90
2022/09/01 11:37:29;;;;;;;;;;;24.50;91.20;;;;;;4978242;28;20045;-90
2022/09/01 11:39:57;;;;;;;;;;;24.50;91.30;;;;;;4962562;28;20008;-89
2022/09/01 11:42:24;;;;;;;;;;;24.70;91.40;;;;;;4978750;28;19933;-90
2022/09/01 11:44:50;;;;;;;;;;;24.50;91.30;;;;;;4962476;28;20302;-91
2022/09/01 11:47:16;;;;;;;;;;;24.30;92.00;;;;;;4964262;28;19929;-92
2022/09/01 11:49:50;;;;;;;;;;;24.40;91.80;;;;;;4963253;28;20306;-91
2022/09/01 11:52:16;;;;;;;;;;;24.60;91.40;;;;;;4963787;28;19936;-93
2022/09/01 11:54:41;;;;;;;;;;;24.60;91.40;;;;;;4979608;28;19929;-91
2022/09/01 11:57:24;;;;;;;;;;;24.50;91.40;;;;;;4972415;28;19991;-90
2022/09/01 11:59:49;;;;;;;;;;;24.40;91.30;;;;;;4952426;28;19929;-91
2022/09/01 12:02:21;;;;;;;;;;;24.90;91.30;;;;;;4987275;28;19980;-94
2022/09/01 12:04:48;;;;;;;;;;;24.60;91.60;;;;;;5004315;28;19933;-94
2022/09/01 12:07:22;;;;;;;;;;;24.80;91.80;;;;;;4965125;28;19922;-86
2022/09/01 12:09:48;;;;;;;;;;;24.40;91.50;;;;;;4946929;28;20374;-88
2022/09/01 12:12:32;;;;;;;;;;;24.20;91.30;;;;;;4978397;28;19925;-89
2022/09/01 12:15:02;;;;;;;;;;;24.40;91.40;;;;;;4978417;28;19976;-90
2022/09/01 12:17:28;;;;;;;;;;;24.40;91.50;;;;;;4978240;28;19948;-88
2022/09/01 12:19:54;;;;;;;;;;;24.50;91.60;;;;;;4978082;28;20205;-88
2022/09/01 12:22:20;;;;;;;;;;;24.40;91.50;;;;;;4977647;28;20012;-89
2022/09/01 12:24:47;;;;;;;;;;;24.50;91.90;;;;;;4978013;28;19926;-91
2022/09/01 12:27:12;;;;;;;;;;;25.00;91.60;;;;;;4961746;28;19930;-86
2022/09/01 12:29:38;;;;;;;;;;;24.90;91.70;;;;;;4977881;28;19973;-88
2022/09/01 12:32:03;;;;;;;;;;;24.70;91.40;;;;;;4962251;28;19926;-89
2022/09/01 12:34:32;;;;;;;;;;;25.10;91.10;;;;;;4963809;28;20432;-89
2022/09/01 12:37:04;;;;;;;;;;;25.00;91.40;;;;;;4980111;28;19934;-91
2022/09/01 12:39:48;;;;;;;;;;;24.90;91.00;;;;;;4980085;28;19937;-91
2022/09/01 12:42:17;;;;;;;;;;;24.50;92.00;;;;;;4948714;28;20008;-91
2022/09/01 12:44:45;;;;;;;;;;;24.40;92.10;;;;;;4963107;28;20400;-91
2022/09/01 12:47:30;;;;;;;;;;;24.10;92.40;;;;;;4981711;28;20346;-92
2022/09/01 12:49:55;;;;;;;;;;;24.20;92.50;;;;;;4980285;28;20072;-91
2022/09/01 12:52:24;;;;;;;;;;;24.10;92.60;;;;;;4962227;28;19984;-92
2022/09/01 12:55:09;;;;;;;;;;;24.00;92.70;;;;;;4962757;28;19930;-92
2022/09/01 12:57:39;;;;;;;;;;;24.20;92.80;;;;;;4979390;28;19933;-92
2022/09/01 13:00:11;;;;;;;;;;;24.40;92.30;;;;;;4966767;28;19932;-93
2022/09/01 13:02:41;;;;;;;;;;;24.80;92.20;;;;;;4981046;28;19926;-95
2022/09/01 13:05:22;;;;;;;;;;;24.00;92.60;;;;;;4980511;28;19973;-93
2022/09/01 13:07:48;;;;;;;;;;;24.00;92.50;;;;;;4978261;28;19989;-92
2022/09/01 13:10:14;;;;;;;;;;;23.90;92.80;;;;;;4977967;28;20016;-92
2022/09/01 13:12:40;;;;;;;;;;;23.80;92.70;;;;;;4962546;28;19977;-93
2022/09/01 13:15:06;;;;;;;;;;;24.20;92.40;;;;;;4977967;28;20231;-92
2022/09/01 13:17:32;;;;;;;;;;;24.00;92.20;;;;;;4961170;28;19930;-91
2022/09/01 13:19:57;;;;;;;;;;;24.10;92.00;;;;;;4994078;28;20026;-94
2022/09/01 13:22:23;;;;;;;;;;;24.00;92.40;;;;;;4977215;28;19929;-91
2022/09/01 13:24:49;;;;;;;;;;;24.00;92.30;;;;;;4959869;28;19934;-91
2022/09/01 13:27:14;;;;;;;;;;;24.10;92.70;;;;;;4960191;28;19977;-90
2022/09/01 13:29:40;;;;;;;;;;;24.50;92.40;;;;;;4978763;28;19976;-95
2022/09/01 13:32:06;;;;;;;;;;;24.60;92.10;;;;;;4979405;28;19992;-94
2022/09/01 13:34:32;;;;;;;;;;;24.60;92.10;;;;;;4965861;28;19914;-90
2022/09/01 13:37:00;;;;;;;;;;;24.60;91.80;;;;;;4970189;28;19937;-92
2022/09/01 13:39:26;;;;;;;;;;;24.40;92.00;;;;;;4964451;28;19932;-95
2022/09/01 13:41:51;;;;;;;;;;;24.10;92.20;;;;;;4977229;28;20341;-92
2022/09/01 13:44:17;;;;;;;;;;;24.10;92.40;;;;;;4946827;28;19926;-95
2022/09/01 13:46:43;;;;;;;;;;;24.30;92.00;;;;;;4978961;28;19952;-92
2022/09/01 13:49:09;;;;;;;;;;;24.80;92.00;;;;;;4962228;28;19929;-92
2022/09/01 13:51:35;;;;;;;;;;;23.70;92.60;;;;;;4978426;28;19937;-92
2022/09/01 13:54:01;;;;;;;;;;;24.10;92.30;;;;;;4972068;28;19926;-90
2022/09/01 13:56:27;;;;;;;;;;;23.90;92.30;;;;;;4955612;28;20012;-94
2022/09/01 13:58:52;;;;;;;;;;;23.90;92.20;;;;;;4983846;28;19988;-94
2022/09/01 14:01:18;;;;;;;;;;;23.70;92.40;;;;;;4963689;28;19927;-95
2022/09/01 14:03:43;;;;;;;;;;;24.10;91.90;;;;;;4986437;28;19925;-94
2022/09/01 14:06:09;;;;;;;;;;;23.90;92.10;;;;;;4983805;28;19994;-91
2022/09/01 14:08:35;;;;;;;;;;;23.90;91.80;;;;;;4968433;28;19988;-93
2022/09/01 14:11:00;;;;;;;;;;;23.50;92.30;;;;;;4965294;28;20331;-92
2022/09/01 14:13:26;;;;;;;;;;;23.50;92.80;;;;;;4979092;28;20408;-89
2022/09/01 14:15:52;;;;;;;;;;;23.60;92.60;;;;;;4980754;28;19930;-91
2022/09/01 14:18:18;;;;;;;;;;;23.80;92.10;;;;;;4985916;28;19980;-90
2022/09/01 14:20:44;;;;;;;;;;;23.90;91.90;;;;;;4968670;28;19965;-91
2022/09/01 14:23:10;;;;;;;;;;;24.30;92.10;;;;;;4977645;28;19929;-93
2022/09/01 14:25:36;;;;;;;;;;;24.60;90.20;;;;;;4948187;28;19988;-91
2022/09/01 14:28:02;;;;;;;;;;;24.60;90.30;;;;;;4974730;28;19930;-94
2022/09/01 14:30:28;;;;;;;;;;;24.70;91.00;;;;;;4974268;28;20436;-91